CDT,Max TemperatureF,Mean TemperatureF,Min TemperatureF,Max Dew PointF,MeanDew PointF,Min DewpointF,Max Humidity, Mean Humidity, Min Humidity, Max Sea Level PressureIn, Mean Sea Level PressureIn, Min Sea Level PressureIn, Max VisibilityMiles, Mean VisibilityMiles, Min VisibilityMiles, Max Wind SpeedMPH, Mean Wind SpeedMPH, Max Gust SpeedMPH,PrecipitationIn, CloudCover, Events, WindDirDegrees
2011-9-1,82,70,59,69,65,60,100,82,55,30.01,29.92,29.82,10,7,0,10,3,18,0.00,4,Fog,154
2011-9-2,78,70,61,74,67,57,100,85,48,29.96,29.84,29.72,10,8,3,15,5,18,0.01,3,Rain,288
2011-9-3,78,64,56,68,63,51,100,95,81,29.95,29.88,29.78,10,10,5,13,3,21,0.35,6,Rain,204
2011-9-4,59,52,46,55,50,43,100,87,59,30.13,29.96,29.84,10,10,5,18,7,25,0.04,6,Rain,331
2011-9-5,58,48,37,48,43,37,100,82,49,30.22,30.18,30.15,10,9,0,9,3,,0.01,5,Fog,357
2011-9-6,67,50,32,52,42,32,100,76,41,30.26,30.22,30.20,10,6,0,6,1,,0.00,3,Fog,258
2011-9-7,74,55,36,55,46,36,100,73,42,30.31,30.27,30.24,10,9,0,10,2,18,0.00,2,Fog,2
2011-9-8,77,60,44,59,51,44,100,71,38,30.29,30.24,30.14,10,9,1,14,3,20,0.00,2,,28
2011-9-9,82,64,45,60,53,46,100,70,37,30.12,30.06,30.01,10,8,0,8,1,,0.00,1,Fog,66
2011-9-10,81,64,46,57,52,47,100,70,30,30.10,30.06,30.01,10,9,0,6,1,,0.00,0,Fog,76
2011-9-11,81,65,49,61,55,49,100,73,36,30.01,29.95,29.90,10,8,0,15,3,24,0.00,3,Fog,259
2011-9-12,81,65,49,63,55,50,100,70,40,29.93,29.80,29.61,10,7,0,21,5,36,0.00,3,Fog,235
2011-9-13,62,56,49,49,40,35,72,56,36,29.95,29.89,29.78,10,9,3,18,11,24,0.00,5,Rain,306
2011-9-14,48,42,34,49,34,25,100,72,41,30.20,30.09,29.94,10,10,4,15,9,28,0.01,5,Rain,310
2011-9-15,52,42,32,38,32,27,100,75,39,30.38,30.32,30.23,10,10,10,14,5,20,0.01,2,,318
2011-9-16,59,42,26,37,30,26,100,67,31,30.36,30.32,30.26,10,10,2,10,2,21,0.00,0,,217
2011-9-17,57,42,28,42,36,29,100,75,46,30.34,30.30,30.25,10,9,1,13,3,18,0.00,3,,169
2011-9-18,59,53,47,57,50,39,100,88,69,30.24,30.10,29.93,10,8,2,15,6,23,0.35,8,Rain,166
2011-9-19,66,59,50,55,48,34,100,74,32,29.96,29.93,29.89,10,9,2,14,5,21,0.03,4,Rain,310
2011-9-20,82,50,36,55,48,36,100,82,59,29.99,29.87,29.73,10,8,0,16,4,24,0.02,5,Fog-Rain,169
2011-9-21,58,52,46,53,48,43,100,87,68,29.90,29.74,29.69,10,9,2,16,8,25,0.15,6,Rain,233
2011-9-22,46,42,39,45,42,39,100,96,77,30.12,30.03,29.92,10,8,2,10,6,,0.03,8,Rain,284
2011-9-23,55,49,43,52,47,43,100,92,68,30.13,30.10,30.05,10,8,1,13,4,17,0.06,8,Rain,350
2011-9-24,55,50,44,50,47,44,100,93,66,30.11,30.07,30.03,10,9,3,8,3,,0.00,8,Rain,14
2011-9-25,60,52,45,51,49,46,100,88,64,30.11,30.05,29.97,10,9,2,13,5,17,0.00,8,Rain,79
2011-9-26,59,56,52,60,54,48,100,93,76,29.98,29.87,29.79,10,10,7,21,10,29,0.04,7,Rain,49
2011-9-27,60,56,51,61,57,51,100,100,99,29.87,29.84,29.81,10,7,0,10,5,,0.03,8,Fog-Rain,18
2011-9-28,65,57,47,56,51,44,100,85,46,29.88,29.84,29.79,10,6,0,6,1,,0.00,5,Fog,184
2011-9-29,56,50,43,56,51,44,100,97,73,29.83,29.61,29.46,10,7,0,26,7,40,0.29,7,Fog-Rain,298
2011-9-30,45,40,35,43,39,34,100,90,67,30.26,30.09,29.88,10,10,7,21,13,33,0.05,6,Rain,359